首页
METAR-TAF:

METAR-TAF

机场 :

佩吉, 亞利桑那州, 美国

纬度: 36-55-14N, 经度: 111-26-53W, 海拔: 1314米

当前天气观测

该预报发布于44分钟前的04:53 UTC
静风
温度 7°C
湿度 81%
气压 1019 hPa
能見度: 14.5公里
散云层高于5500英尺
散云层高于7000英尺

METAR: KPGA 080453Z AUTO 00000KT 9SM SCT055 SCT070 07/04 A3010 RMK AO2 SLP179 T00720039 TSNO

时间: 22:37 (05:37 UTC)

预报

该预报发布于9分钟前的05:28 UTC
预报有效从08日的 06点(UTC)到 09日的 06点(UTC)
风速5节,风向多变
能見度: 10公里
阴天层高于8000英尺
从 08日的 0800点(UTC)
风速5节,风向多变
能見度: 10公里
散云层高于2500英尺
阴天层高于3500英尺
附近有阵雨
短暂存在
从 08日的 09点(UTC)到 08日的 13点(UTC)
能見度: 6.4公里
阴天层高于3000英尺
小阵雨, 轻雾
从 08日的 1500点(UTC)
风速7节,风向南转西南
能見度: 10公里
散云层高于2000英尺
多云层高于4000英尺
附近有雾
从 08日的 2100点(UTC)
风速10节,风向西
能見度: 10公里
散云层高于3500英尺
多云层高于6000英尺

TAF: KPGA 080528Z 0806/0906 VRB05KT P6SM OVC080 FM080800 VRB05KT P6SM VCSH SCT025 OVC035 TEMPO 0809/0813 4SM -SHRA BR OVC030 FM081500 21007KT P6SM VCFG SCT020 BKN040 FM082100 28010KT P6SM SCT035 BKN060

超过4000个机场的气象观测和天气预报(METAR&TAF报告)。

可查询的气象台以黄色和红色小点在地图上表示。

将鼠标移到小点上方,可查看气象台名称。

然后点击查看天气观测和预报。

如需切换地图:点击带黑十字的绿色按钮放大地图;点击带横线的绿色按钮缩小地图;或者点击绿色箭头查看邻近地区的地图。


METAR-TAF: